sensor_id;sensor_type;location;lat;lon;timestamp;temperature;humidity
37678;DHT22;23517;50.390;8.616;2022-08-19T00:01:55;20.70;52.90
37678;DHT22;23517;50.390;8.616;2022-08-19T00:04:27;20.70;52.80
37678;DHT22;23517;50.390;8.616;2022-08-19T00:06:57;20.70;53.00
37678;DHT22;23517;50.390;8.616;2022-08-19T00:09:25;20.70;52.90
37678;DHT22;23517;50.390;8.616;2022-08-19T00:11:53;20.70;52.90
37678;DHT22;23517;50.390;8.616;2022-08-19T00:14:22;20.70;52.80
37678;DHT22;23517;50.390;8.616;2022-08-19T00:16:51;20.70;52.80
37678;DHT22;23517;50.390;8.616;2022-08-19T00:19:21;20.70;52.70
37678;DHT22;23517;50.390;8.616;2022-08-19T00:21:48;20.70;52.60
37678;DHT22;23517;50.390;8.616;2022-08-19T00:24:15;20.80;52.60
37678;DHT22;23517;50.390;8.616;2022-08-19T00:26:43;20.80;52.40
37678;DHT22;23517;50.390;8.616;2022-08-19T00:29:13;20.70;52.50
37678;DHT22;23517;50.390;8.616;2022-08-19T00:31:43;20.70;52.80
37678;DHT22;23517;50.390;8.616;2022-08-19T00:34:11;20.80;52.60
37678;DHT22;23517;50.390;8.616;2022-08-19T00:36:41;20.70;52.60
37678;DHT22;23517;50.390;8.616;2022-08-19T00:39:09;20.70;52.60
37678;DHT22;23517;50.390;8.616;2022-08-19T00:41:37;20.70;52.60
37678;DHT22;23517;50.390;8.616;2022-08-19T00:44:11;20.70;52.50
37678;DHT22;23517;50.390;8.616;2022-08-19T00:46:44;20.70;52.60
37678;DHT22;23517;50.390;8.616;2022-08-19T00:49:25;20.70;52.60
37678;DHT22;23517;50.390;8.616;2022-08-19T00:52:04;20.70;52.70
37678;DHT22;23517;50.390;8.616;2022-08-19T00:54:36;20.70;52.60
37678;DHT22;23517;50.390;8.616;2022-08-19T00:57:07;20.70;52.50
37678;DHT22;23517;50.390;8.616;2022-08-19T00:59:38;20.70;52.50
37678;DHT22;23517;50.390;8.616;2022-08-19T01:02:33;20.60;52.60
37678;DHT22;23517;50.390;8.616;2022-08-19T01:05:03;20.60;52.60
37678;DHT22;23517;50.390;8.616;2022-08-19T01:07:34;20.60;52.60
37678;DHT22;23517;50.390;8.616;2022-08-19T01:10:06;20.60;52.60
37678;DHT22;23517;50.390;8.616;2022-08-19T01:12:41;20.60;52.70
37678;DHT22;23517;50.390;8.616;2022-08-19T01:15:10;20.60;52.70
37678;DHT22;23517;50.390;8.616;2022-08-19T01:17:40;20.60;52.80
37678;DHT22;23517;50.390;8.616;2022-08-19T01:20:14;20.50;52.80
37678;DHT22;23517;50.390;8.616;2022-08-19T01:22:48;20.50;53.20
37678;DHT22;23517;50.390;8.616;2022-08-19T01:25:19;20.40;53.40
37678;DHT22;23517;50.390;8.616;2022-08-19T01:27:52;20.40;53.60
37678;DHT22;23517;50.390;8.616;2022-08-19T01:30:25;20.40;53.50
37678;DHT22;23517;50.390;8.616;2022-08-19T01:32:55;20.40;53.60
37678;DHT22;23517;50.390;8.616;2022-08-19T01:35:24;20.40;53.70
37678;DHT22;23517;50.390;8.616;2022-08-19T01:37:56;20.40;53.80
37678;DHT22;23517;50.390;8.616;2022-08-19T01:40:29;20.40;54.10
37678;DHT22;23517;50.390;8.616;2022-08-19T01:42:59;20.40;54.00
37678;DHT22;23517;50.390;8.616;2022-08-19T01:45:28;20.40;54.10
37678;DHT22;23517;50.390;8.616;2022-08-19T01:47:57;20.40;54.20
37678;DHT22;23517;50.390;8.616;2022-08-19T01:50:29;20.40;54.40
37678;DHT22;23517;50.390;8.616;2022-08-19T01:52:57;20.40;54.40
37678;DHT22;23517;50.390;8.616;2022-08-19T01:55:32;20.30;54.50
37678;DHT22;23517;50.390;8.616;2022-08-19T01:58:15;20.30;54.60
37678;DHT22;23517;50.390;8.616;2022-08-19T02:00:45;20.30;54.70
37678;DHT22;23517;50.390;8.616;2022-08-19T02:03:13;20.30;54.80
37678;DHT22;23517;50.390;8.616;2022-08-19T02:05:41;20.30;54.70
37678;DHT22;23517;50.390;8.616;2022-08-19T02:08:09;20.20;54.70
37678;DHT22;23517;50.390;8.616;2022-08-19T02:10:41;20.20;54.90
37678;DHT22;23517;50.390;8.616;2022-08-19T02:13:10;20.10;55.30
37678;DHT22;23517;50.390;8.616;2022-08-19T02:15:40;20.10;55.40
37678;DHT22;23517;50.390;8.616;2022-08-19T02:18:07;20.00;55.50
37678;DHT22;23517;50.390;8.616;2022-08-19T02:20:35;20.00;55.60
37678;DHT22;23517;50.390;8.616;2022-08-19T02:23:03;20.00;55.90
37678;DHT22;23517;50.390;8.616;2022-08-19T02:25:30;19.90;56.10
37678;DHT22;23517;50.390;8.616;2022-08-19T02:27:57;19.80;56.20
37678;DHT22;23517;50.390;8.616;2022-08-19T02:30:23;19.80;56.40
37678;DHT22;23517;50.390;8.616;2022-08-19T02:32:52;19.80;56.70
37678;DHT22;23517;50.390;8.616;2022-08-19T02:35:19;19.70;56.90
37678;DHT22;23517;50.390;8.616;2022-08-19T02:37:45;19.70;57.00
37678;DHT22;23517;50.390;8.616;2022-08-19T02:40:32;19.70;57.00
37678;DHT22;23517;50.390;8.616;2022-08-19T02:43:04;19.70;57.20
37678;DHT22;23517;50.390;8.616;2022-08-19T02:45:36;19.60;57.30
37678;DHT22;23517;50.390;8.616;2022-08-19T02:48:07;19.50;57.70
37678;DHT22;23517;50.390;8.616;2022-08-19T02:50:50;19.50;57.70
37678;DHT22;23517;50.390;8.616;2022-08-19T02:53:26;19.50;57.90
37678;DHT22;23517;50.390;8.616;2022-08-19T02:55:53;19.50;58.00
37678;DHT22;23517;50.390;8.616;2022-08-19T02:58:21;19.40;58.10
37678;DHT22;23517;50.390;8.616;2022-08-19T03:00:52;19.40;58.10
37678;DHT22;23517;50.390;8.616;2022-08-19T03:03:20;19.40;58.30
37678;DHT22;23517;50.390;8.616;2022-08-19T03:05:47;19.40;58.40
37678;DHT22;23517;50.390;8.616;2022-08-19T03:08:23;19.40;58.60
37678;DHT22;23517;50.390;8.616;2022-08-19T03:10:50;19.40;58.60
37678;DHT22;23517;50.390;8.616;2022-08-19T03:13:18;19.40;58.80
37678;DHT22;23517;50.390;8.616;2022-08-19T03:15:47;19.40;58.90
37678;DHT22;23517;50.390;8.616;2022-08-19T03:18:15;19.40;58.90
37678;DHT22;23517;50.390;8.616;2022-08-19T03:20:48;19.40;58.90
37678;DHT22;23517;50.390;8.616;2022-08-19T03:23:17;19.40;59.00
37678;DHT22;23517;50.390;8.616;2022-08-19T03:25:46;19.40;58.90
37678;DHT22;23517;50.390;8.616;2022-08-19T03:28:31;19.40;58.80
37678;DHT22;23517;50.390;8.616;2022-08-19T03:31:04;19.40;58.90
37678;DHT22;23517;50.390;8.616;2022-08-19T03:33:53;19.40;58.90
37678;DHT22;23517;50.390;8.616;2022-08-19T03:36:25;19.40;58.90
37678;DHT22;23517;50.390;8.616;2022-08-19T03:38:57;19.40;59.00
37678;DHT22;23517;50.390;8.616;2022-08-19T03:41:32;19.40;59.00
37678;DHT22;23517;50.390;8.616;2022-08-19T03:44:14;19.40;59.00
37678;DHT22;23517;50.390;8.616;2022-08-19T03:46:47;19.40;59.00
37678;DHT22;23517;50.390;8.616;2022-08-19T03:49:19;19.40;59.00
37678;DHT22;23517;50.390;8.616;2022-08-19T03:51:53;19.40;59.20
37678;DHT22;23517;50.390;8.616;2022-08-19T03:54:22;19.40;59.20
37678;DHT22;23517;50.390;8.616;2022-08-19T03:56:52;19.40;59.30
37678;DHT22;23517;50.390;8.616;2022-08-19T03:59:32;19.40;59.30
37678;DHT22;23517;50.390;8.616;2022-08-19T04:02:02;19.40;59.50
37678;DHT22;23517;50.390;8.616;2022-08-19T04:04:35;19.40;59.50
37678;DHT22;23517;50.390;8.616;2022-08-19T04:07:04;19.40;59.60
37678;DHT22;23517;50.390;8.616;2022-08-19T04:09:32;19.40;59.50
37678;DHT22;23517;50.390;8.616;2022-08-19T04:11:59;19.40;59.50
37678;DHT22;23517;50.390;8.616;2022-08-19T04:14:28;19.40;59.50
37678;DHT22;23517;50.390;8.616;2022-08-19T04:16:58;19.40;59.40
37678;DHT22;23517;50.390;8.616;2022-08-19T04:19:25;19.40;59.40
37678;DHT22;23517;50.390;8.616;2022-08-19T04:21:54;19.30;59.60
37678;DHT22;23517;50.390;8.616;2022-08-19T04:24:22;19.30;59.80
37678;DHT22;23517;50.390;8.616;2022-08-19T04:26:49;19.30;60.00
37678;DHT22;23517;50.390;8.616;2022-08-19T04:29:22;19.30;60.00
37678;DHT22;23517;50.390;8.616;2022-08-19T04:31:53;19.20;60.20
37678;DHT22;23517;50.390;8.616;2022-08-19T04:34:22;19.20;60.30
37678;DHT22;23517;50.390;8.616;2022-08-19T04:36:52;19.20;60.40
37678;DHT22;23517;50.390;8.616;2022-08-19T04:39:22;19.20;60.40
37678;DHT22;23517;50.390;8.616;2022-08-19T04:42:11;19.20;60.50
37678;DHT22;23517;50.390;8.616;2022-08-19T04:44:56;19.20;60.50
37678;DHT22;23517;50.390;8.616;2022-08-19T04:47:25;19.30;60.60
37678;DHT22;23517;50.390;8.616;2022-08-19T04:50:11;19.30;60.50
37678;DHT22;23517;50.390;8.616;2022-08-19T04:52:39;19.30;60.60
37678;DHT22;23517;50.390;8.616;2022-08-19T04:55:10;19.30;60.40
37678;DHT22;23517;50.390;8.616;2022-08-19T04:57:37;19.40;60.40
37678;DHT22;23517;50.390;8.616;2022-08-19T05:00:08;19.40;60.00
37678;DHT22;23517;50.390;8.616;2022-08-19T05:02:37;19.40;59.90
37678;DHT22;23517;50.390;8.616;2022-08-19T05:05:04;19.50;59.80
37678;DHT22;23517;50.390;8.616;2022-08-19T05:07:32;19.50;59.70
37678;DHT22;23517;50.390;8.616;2022-08-19T05:10:00;19.60;59.50
37678;DHT22;23517;50.390;8.616;2022-08-19T05:12:27;19.60;59.40
37678;DHT22;23517;50.390;8.616;2022-08-19T05:14:56;19.70;59.10
37678;DHT22;23517;50.390;8.616;2022-08-19T05:17:25;19.80;58.70
37678;DHT22;23517;50.390;8.616;2022-08-19T05:19:56;19.90;58.70
37678;DHT22;23517;50.390;8.616;2022-08-19T05:22:43;20.00;58.20
37678;DHT22;23517;50.390;8.616;2022-08-19T05:25:14;20.10;57.90
37678;DHT22;23517;50.390;8.616;2022-08-19T05:27:45;20.10;57.70
37678;DHT22;23517;50.390;8.616;2022-08-19T05:30:12;20.20;57.80
37678;DHT22;23517;50.390;8.616;2022-08-19T05:32:39;20.30;57.30
37678;DHT22;23517;50.390;8.616;2022-08-19T05:35:07;20.30;57.30
37678;DHT22;23517;50.390;8.616;2022-08-19T05:37:34;20.40;56.70
37678;DHT22;23517;50.390;8.616;2022-08-19T05:40:01;20.60;56.70
37678;DHT22;23517;50.390;8.616;2022-08-19T05:42:29;20.80;55.70
37678;DHT22;23517;50.390;8.616;2022-08-19T05:44:56;21.00;55.10
37678;DHT22;23517;50.390;8.616;2022-08-19T05:47:23;21.20;54.20
37678;DHT22;23517;50.390;8.616;2022-08-19T05:49:50;21.40;53.50
37678;DHT22;23517;50.390;8.616;2022-08-19T05:52:18;21.60;53.00
37678;DHT22;23517;50.390;8.616;2022-08-19T05:54:52;21.90;52.30
37678;DHT22;23517;50.390;8.616;2022-08-19T05:57:23;22.10;51.20
37678;DHT22;23517;50.390;8.616;2022-08-19T05:59:51;22.30;51.00
37678;DHT22;23517;50.390;8.616;2022-08-19T06:02:29;22.50;49.90
37678;DHT22;23517;50.390;8.616;2022-08-19T06:04:57;22.80;49.30
37678;DHT22;23517;50.390;8.616;2022-08-19T06:07:24;23.20;47.70
37678;DHT22;23517;50.390;8.616;2022-08-19T06:09:51;23.50;46.60
37678;DHT22;23517;50.390;8.616;2022-08-19T06:12:28;23.90;45.30
37678;DHT22;23517;50.390;8.616;2022-08-19T06:17:28;26.00;37.80
37678;DHT22;23517;50.390;8.616;2022-08-19T06:19:57;26.50;36.30
37678;DHT22;23517;50.390;8.616;2022-08-19T06:22:24;27.60;33.20
37678;DHT22;23517;50.390;8.616;2022-08-19T06:24:51;27.90;32.20
37678;DHT22;23517;50.390;8.616;2022-08-19T06:27:21;28.10;32.30
37678;DHT22;23517;50.390;8.616;2022-08-19T06:29:48;28.20;31.20
37678;DHT22;23517;50.390;8.616;2022-08-19T06:32:16;28.30;30.80
37678;DHT22;23517;50.390;8.616;2022-08-19T06:34:45;27.80;31.20
37678;DHT22;23517;50.390;8.616;2022-08-19T06:37:13;27.70;32.30
37678;DHT22;23517;50.390;8.616;2022-08-19T06:39:44;27.80;31.30
37678;DHT22;23517;50.390;8.616;2022-08-19T06:44:45;28.50;29.90
37678;DHT22;23517;50.390;8.616;2022-08-19T06:47:19;29.00;28.60
37678;DHT22;23517;50.390;8.616;2022-08-19T06:49:52;29.20;28.80
37678;DHT22;23517;50.390;8.616;2022-08-19T06:52:26;29.10;28.40
37678;DHT22;23517;50.390;8.616;2022-08-19T06:54:54;28.90;28.20
37678;DHT22;23517;50.390;8.616;2022-08-19T06:57:26;28.90;28.10
37678;DHT22;23517;50.390;8.616;2022-08-19T06:59:53;29.00;29.10
37678;DHT22;23517;50.390;8.616;2022-08-19T07:02:22;29.00;28.80
37678;DHT22;23517;50.390;8.616;2022-08-19T07:04:53;29.20;29.20
37678;DHT22;23517;50.390;8.616;2022-08-19T07:07:21;30.50;26.00
37678;DHT22;23517;50.390;8.616;2022-08-19T07:09:50;31.00;25.40
37678;DHT22;23517;50.390;8.616;2022-08-19T07:12:28;31.80;23.30
37678;DHT22;23517;50.390;8.616;2022-08-19T07:15:01;31.90;23.10
37678;DHT22;23517;50.390;8.616;2022-08-19T07:17:31;31.50;22.90
37678;DHT22;23517;50.390;8.616;2022-08-19T07:20:01;32.00;23.60
37678;DHT22;23517;50.390;8.616;2022-08-19T07:22:33;33.40;21.90
37678;DHT22;23517;50.390;8.616;2022-08-19T07:25:02;34.00;21.00
37678;DHT22;23517;50.390;8.616;2022-08-19T07:27:30;34.30;20.10
37678;DHT22;23517;50.390;8.616;2022-08-19T07:29:59;34.40;19.90
37678;DHT22;23517;50.390;8.616;2022-08-19T07:32:26;34.40;19.30
37678;DHT22;23517;50.390;8.616;2022-08-19T07:34:54;33.00;21.00
37678;DHT22;23517;50.390;8.616;2022-08-19T07:37:23;32.30;22.20
37678;DHT22;23517;50.390;8.616;2022-08-19T07:39:55;32.30;22.50
37678;DHT22;23517;50.390;8.616;2022-08-19T07:42:22;32.50;21.80
37678;DHT22;23517;50.390;8.616;2022-08-19T07:44:48;32.70;21.60
37678;DHT22;23517;50.390;8.616;2022-08-19T07:47:16;33.30;20.90
37678;DHT22;23517;50.390;8.616;2022-08-19T07:50:06;33.80;20.30
37678;DHT22;23517;50.390;8.616;2022-08-19T07:52:36;34.00;20.10
37678;DHT22;23517;50.390;8.616;2022-08-19T07:55:08;33.60;20.30
37678;DHT22;23517;50.390;8.616;2022-08-19T07:57:56;33.10;21.40
37678;DHT22;23517;50.390;8.616;2022-08-19T08:00:23;33.50;20.80
37678;DHT22;23517;50.390;8.616;2022-08-19T08:02:51;34.00;20.70
37678;DHT22;23517;50.390;8.616;2022-08-19T08:05:22;33.70;19.90
37678;DHT22;23517;50.390;8.616;2022-08-19T08:08:11;33.10;21.30
37678;DHT22;23517;50.390;8.616;2022-08-19T08:10:53;33.30;21.00
37678;DHT22;23517;50.390;8.616;2022-08-19T08:13:24;33.70;20.10
37678;DHT22;23517;50.390;8.616;2022-08-19T08:15:52;33.30;20.40
37678;DHT22;23517;50.390;8.616;2022-08-19T08:18:24;32.70;21.10
37678;DHT22;23517;50.390;8.616;2022-08-19T08:20:54;31.70;22.10
37678;DHT22;23517;50.390;8.616;2022-08-19T08:23:23;30.90;24.00
37678;DHT22;23517;50.390;8.616;2022-08-19T08:25:56;30.70;24.90
37678;DHT22;23517;50.390;8.616;2022-08-19T08:28:25;31.50;23.60
37678;DHT22;23517;50.390;8.616;2022-08-19T08:30:56;32.50;22.60
37678;DHT22;23517;50.390;8.616;2022-08-19T08:33:26;32.90;21.20
37678;DHT22;23517;50.390;8.616;2022-08-19T08:36:07;31.70;22.80
37678;DHT22;23517;50.390;8.616;2022-08-19T08:38:35;31.50;23.20
37678;DHT22;23517;50.390;8.616;2022-08-19T08:44:31;30.80;23.80
37678;DHT22;23517;50.390;8.616;2022-08-19T08:47:14;30.40;24.70
37678;DHT22;23517;50.390;8.616;2022-08-19T08:50:03;29.40;26.00
37678;DHT22;23517;50.390;8.616;2022-08-19T08:52:35;29.20;27.00
37678;DHT22;23517;50.390;8.616;2022-08-19T08:55:13;30.00;26.00
37678;DHT22;23517;50.390;8.616;2022-08-19T09:02:56;31.70;22.30
37678;DHT22;23517;50.390;8.616;2022-08-19T09:05:42;32.40;21.10
37678;DHT22;23517;50.390;8.616;2022-08-19T09:11:52;33.80;19.10
37678;DHT22;23517;50.390;8.616;2022-08-19T09:14:37;34.30;19.40
37678;DHT22;23517;50.390;8.616;2022-08-19T09:17:23;35.10;18.70
37678;DHT22;23517;50.390;8.616;2022-08-19T09:20:20;34.00;19.00
37678;DHT22;23517;50.390;8.616;2022-08-19T09:22:51;32.80;20.30
37678;DHT22;23517;50.390;8.616;2022-08-19T09:25:20;32.90;20.00
37678;DHT22;23517;50.390;8.616;2022-08-19T09:30:36;31.10;22.40
37678;DHT22;23517;50.390;8.616;2022-08-19T09:33:07;31.60;22.70
37678;DHT22;23517;50.390;8.616;2022-08-19T09:35:35;31.50;22.60
37678;DHT22;23517;50.390;8.616;2022-08-19T09:38:20;31.50;21.60
37678;DHT22;23517;50.390;8.616;2022-08-19T09:40:48;31.90;22.00
37678;DHT22;23517;50.390;8.616;2022-08-19T09:43:16;31.00;22.80
37678;DHT22;23517;50.390;8.616;2022-08-19T09:46:00;30.20;24.00
37678;DHT22;23517;50.390;8.616;2022-08-19T09:48:27;31.20;23.40
37678;DHT22;23517;50.390;8.616;2022-08-19T09:50:53;32.10;21.90
37678;DHT22;23517;50.390;8.616;2022-08-19T09:53:20;33.60;19.60
37678;DHT22;23517;50.390;8.616;2022-08-19T09:55:54;35.00;18.20
37678;DHT22;23517;50.390;8.616;2022-08-19T09:58:21;35.50;17.20
37678;DHT22;23517;50.390;8.616;2022-08-19T10:00:54;35.20;17.40
37678;DHT22;23517;50.390;8.616;2022-08-19T10:03:21;34.90;16.50
37678;DHT22;23517;50.390;8.616;2022-08-19T10:06:00;34.10;18.40
37678;DHT22;23517;50.390;8.616;2022-08-19T10:08:31;33.00;19.00
37678;DHT22;23517;50.390;8.616;2022-08-19T10:11:00;32.00;20.50
37678;DHT22;23517;50.390;8.616;2022-08-19T10:13:48;31.60;21.30
37678;DHT22;23517;50.390;8.616;2022-08-19T10:16:18;31.00;22.00
37678;DHT22;23517;50.390;8.616;2022-08-19T10:18:52;30.40;22.10
37678;DHT22;23517;50.390;8.616;2022-08-19T10:21:29;29.80;22.60
37678;DHT22;23517;50.390;8.616;2022-08-19T10:26:35;28.20;24.20
37678;DHT22;23517;50.390;8.616;2022-08-19T10:29:05;28.10;26.20
37678;DHT22;23517;50.390;8.616;2022-08-19T10:31:34;28.40;26.00
37678;DHT22;23517;50.390;8.616;2022-08-19T10:34:21;28.60;26.30
37678;DHT22;23517;50.390;8.616;2022-08-19T10:36:53;28.60;26.30
37678;DHT22;23517;50.390;8.616;2022-08-19T10:39:26;28.40;26.30
37678;DHT22;23517;50.390;8.616;2022-08-19T10:41:57;28.50;25.80
37678;DHT22;23517;50.390;8.616;2022-08-19T10:44:25;28.20;25.00
37678;DHT22;23517;50.390;8.616;2022-08-19T10:46:59;28.20;24.70
37678;DHT22;23517;50.390;8.616;2022-08-19T10:49:26;28.00;25.60
37678;DHT22;23517;50.390;8.616;2022-08-19T10:51:54;28.20;25.70
37678;DHT22;23517;50.390;8.616;2022-08-19T10:54:45;28.30;25.40
37678;DHT22;23517;50.390;8.616;2022-08-19T10:57:34;28.20;25.80
37678;DHT22;23517;50.390;8.616;2022-08-19T11:00:22;28.00;26.30
37678;DHT22;23517;50.390;8.616;2022-08-19T11:02:50;27.70;26.00
37678;DHT22;23517;50.390;8.616;2022-08-19T11:05:18;27.60;26.40
37678;DHT22;23517;50.390;8.616;2022-08-19T11:07:45;27.60;26.40
37678;DHT22;23517;50.390;8.616;2022-08-19T11:10:14;27.70;26.50
37678;DHT22;23517;50.390;8.616;2022-08-19T11:12:47;27.90;26.00
37678;DHT22;23517;50.390;8.616;2022-08-19T11:15:14;27.80;26.10
37678;DHT22;23517;50.390;8.616;2022-08-19T11:17:41;27.70;25.70
37678;DHT22;23517;50.390;8.616;2022-08-19T11:20:14;27.80;26.10
37678;DHT22;23517;50.390;8.616;2022-08-19T11:22:41;27.90;24.90
37678;DHT22;23517;50.390;8.616;2022-08-19T11:25:10;27.90;25.00
37678;DHT22;23517;50.390;8.616;2022-08-19T11:27:41;28.00;24.20
37678;DHT22;23517;50.390;8.616;2022-08-19T11:30:10;28.10;23.80
37678;DHT22;23517;50.390;8.616;2022-08-19T11:32:40;28.10;23.40
37678;DHT22;23517;50.390;8.616;2022-08-19T11:35:14;28.20;22.80
37678;DHT22;23517;50.390;8.616;2022-08-19T11:37:41;28.30;23.60
37678;DHT22;23517;50.390;8.616;2022-08-19T11:40:08;28.50;23.40
37678;DHT22;23517;50.390;8.616;2022-08-19T11:42:35;28.40;23.00
37678;DHT22;23517;50.390;8.616;2022-08-19T11:45:21;28.40;22.70
37678;DHT22;23517;50.390;8.616;2022-08-19T11:47:49;28.40;22.80
37678;DHT22;23517;50.390;8.616;2022-08-19T11:50:16;28.30;23.50
37678;DHT22;23517;50.390;8.616;2022-08-19T11:52:43;28.30;23.50
37678;DHT22;23517;50.390;8.616;2022-08-19T11:55:13;28.40;21.90
37678;DHT22;23517;50.390;8.616;2022-08-19T11:57:40;28.40;21.20
37678;DHT22;23517;50.390;8.616;2022-08-19T12:00:09;28.40;19.90
37678;DHT22;23517;50.390;8.616;2022-08-19T12:02:39;28.20;19.60
37678;DHT22;23517;50.390;8.616;2022-08-19T12:05:06;28.00;20.50
37678;DHT22;23517;50.390;8.616;2022-08-19T12:07:39;28.10;21.30
37678;DHT22;23517;50.390;8.616;2022-08-19T12:10:07;28.10;22.60
37678;DHT22;23517;50.390;8.616;2022-08-19T12:12:36;28.20;23.40
37678;DHT22;23517;50.390;8.616;2022-08-19T12:15:07;28.30;23.20
37678;DHT22;23517;50.390;8.616;2022-08-19T12:17:35;28.40;22.60
37678;DHT22;23517;50.390;8.616;2022-08-19T12:20:02;28.40;22.80
37678;DHT22;23517;50.390;8.616;2022-08-19T12:22:30;28.20;22.40
37678;DHT22;23517;50.390;8.616;2022-08-19T12:24:57;27.90;21.60
37678;DHT22;23517;50.390;8.616;2022-08-19T12:27:24;27.60;22.10
37678;DHT22;23517;50.390;8.616;2022-08-19T12:30:09;27.60;22.50
37678;DHT22;23517;50.390;8.616;2022-08-19T12:32:38;27.90;21.70
37678;DHT22;23517;50.390;8.616;2022-08-19T12:35:06;28.20;21.30
37678;DHT22;23517;50.390;8.616;2022-08-19T12:37:35;28.60;20.60
37678;DHT22;23517;50.390;8.616;2022-08-19T12:40:03;28.90;20.30
37678;DHT22;23517;50.390;8.616;2022-08-19T12:42:30;28.90;20.20
37678;DHT22;23517;50.390;8.616;2022-08-19T12:44:57;28.80;21.20
37678;DHT22;23517;50.390;8.616;2022-08-19T12:47:24;28.80;20.70
37678;DHT22;23517;50.390;8.616;2022-08-19T12:49:52;28.60;20.70
37678;DHT22;23517;50.390;8.616;2022-08-19T12:52:23;28.50;20.80
37678;DHT22;23517;50.390;8.616;2022-08-19T12:54:52;28.50;21.90
37678;DHT22;23517;50.390;8.616;2022-08-19T12:57:23;28.70;22.00
37678;DHT22;23517;50.390;8.616;2022-08-19T13:00:11;28.90;21.70
37678;DHT22;23517;50.390;8.616;2022-08-19T13:02:44;29.00;22.10
37678;DHT22;23517;50.390;8.616;2022-08-19T13:05:19;29.20;21.50
37678;DHT22;23517;50.390;8.616;2022-08-19T13:07:51;29.20;19.90
37678;DHT22;23517;50.390;8.616;2022-08-19T13:10:20;29.40;19.00
37678;DHT22;23517;50.390;8.616;2022-08-19T13:12:48;29.40;19.90
37678;DHT22;23517;50.390;8.616;2022-08-19T13:15:17;29.50;19.90
37678;DHT22;23517;50.390;8.616;2022-08-19T13:17:51;29.40;20.10
37678;DHT22;23517;50.390;8.616;2022-08-19T13:20:20;29.30;20.80
37678;DHT22;23517;50.390;8.616;2022-08-19T13:22:48;29.10;21.50
37678;DHT22;23517;50.390;8.616;2022-08-19T13:25:16;28.90;21.60
37678;DHT22;23517;50.390;8.616;2022-08-19T13:27:49;28.70;21.80
37678;DHT22;23517;50.390;8.616;2022-08-19T13:30:19;28.70;22.00
37678;DHT22;23517;50.390;8.616;2022-08-19T13:33:04;28.70;20.60
37678;DHT22;23517;50.390;8.616;2022-08-19T13:35:58;28.70;20.70
37678;DHT22;23517;50.390;8.616;2022-08-19T13:38:27;28.70;20.10
37678;DHT22;23517;50.390;8.616;2022-08-19T13:40:55;28.60;19.90
37678;DHT22;23517;50.390;8.616;2022-08-19T13:43:29;28.80;19.70
37678;DHT22;23517;50.390;8.616;2022-08-19T13:45:55;28.60;19.20
37678;DHT22;23517;50.390;8.616;2022-08-19T13:48:23;28.50;19.90
37678;DHT22;23517;50.390;8.616;2022-08-19T13:50:53;28.50;20.60
37678;DHT22;23517;50.390;8.616;2022-08-19T13:53:20;28.70;19.90
37678;DHT22;23517;50.390;8.616;2022-08-19T13:55:47;28.80;20.00
37678;DHT22;23517;50.390;8.616;2022-08-19T13:58:18;28.80;20.00
37678;DHT22;23517;50.390;8.616;2022-08-19T14:00:45;28.60;20.50
37678;DHT22;23517;50.390;8.616;2022-08-19T14:03:13;28.70;20.60
37678;DHT22;23517;50.390;8.616;2022-08-19T14:05:39;28.70;20.90
37678;DHT22;23517;50.390;8.616;2022-08-19T14:08:07;28.60;20.90
37678;DHT22;23517;50.390;8.616;2022-08-19T14:10:34;28.60;20.80
37678;DHT22;23517;50.390;8.616;2022-08-19T14:13:02;28.50;20.60
37678;DHT22;23517;50.390;8.616;2022-08-19T14:15:30;28.60;21.10
37678;DHT22;23517;50.390;8.616;2022-08-19T14:17:57;28.70;20.60
37678;DHT22;23517;50.390;8.616;2022-08-19T14:20:24;28.70;19.80
37678;DHT22;23517;50.390;8.616;2022-08-19T14:22:53;28.50;20.40
37678;DHT22;23517;50.390;8.616;2022-08-19T14:25:27;28.50;20.60
37678;DHT22;23517;50.390;8.616;2022-08-19T14:27:56;28.40;20.70
37678;DHT22;23517;50.390;8.616;2022-08-19T14:30:26;28.30;21.10
37678;DHT22;23517;50.390;8.616;2022-08-19T14:32:56;28.30;21.30
37678;DHT22;23517;50.390;8.616;2022-08-19T14:35:28;28.30;21.20
37678;DHT22;23517;50.390;8.616;2022-08-19T14:37:56;28.20;21.40
37678;DHT22;23517;50.390;8.616;2022-08-19T14:40:26;28.10;21.80
37678;DHT22;23517;50.390;8.616;2022-08-19T14:42:57;28.10;21.90
37678;DHT22;23517;50.390;8.616;2022-08-19T14:45:36;27.90;21.90
37678;DHT22;23517;50.390;8.616;2022-08-19T14:48:07;28.00;22.70
37678;DHT22;23517;50.390;8.616;2022-08-19T14:50:45;28.00;22.80
37678;DHT22;23517;50.390;8.616;2022-08-19T14:53:11;28.10;22.40
37678;DHT22;23517;50.390;8.616;2022-08-19T14:55:44;28.20;22.20
37678;DHT22;23517;50.390;8.616;2022-08-19T14:58:12;28.10;22.30
37678;DHT22;23517;50.390;8.616;2022-08-19T15:00:58;28.20;22.50
37678;DHT22;23517;50.390;8.616;2022-08-19T15:03:26;28.20;21.70
37678;DHT22;23517;50.390;8.616;2022-08-19T15:05:53;28.30;21.90
37678;DHT22;23517;50.390;8.616;2022-08-19T15:08:23;28.50;21.80
37678;DHT22;23517;50.390;8.616;2022-08-19T15:10:51;28.80;20.70
37678;DHT22;23517;50.390;8.616;2022-08-19T15:13:18;29.00;20.80
37678;DHT22;23517;50.390;8.616;2022-08-19T15:15:45;29.00;20.80
37678;DHT22;23517;50.390;8.616;2022-08-19T15:18:14;29.00;20.70
37678;DHT22;23517;50.390;8.616;2022-08-19T15:20:41;29.10;20.50
37678;DHT22;23517;50.390;8.616;2022-08-19T15:23:15;29.00;20.40
37678;DHT22;23517;50.390;8.616;2022-08-19T15:25:44;28.80;20.00
37678;DHT22;23517;50.390;8.616;2022-08-19T15:28:15;28.80;20.00
37678;DHT22;23517;50.390;8.616;2022-08-19T15:30:42;28.70;20.00
37678;DHT22;23517;50.390;8.616;2022-08-19T15:33:10;28.90;20.00
37678;DHT22;23517;50.390;8.616;2022-08-19T15:35:42;29.00;20.00
37678;DHT22;23517;50.390;8.616;2022-08-19T15:38:10;29.00;20.00
37678;DHT22;23517;50.390;8.616;2022-08-19T15:40:41;29.00;20.00
37678;DHT22;23517;50.390;8.616;2022-08-19T15:43:08;28.90;19.80
37678;DHT22;23517;50.390;8.616;2022-08-19T15:45:35;29.00;20.00
37678;DHT22;23517;50.390;8.616;2022-08-19T15:48:04;29.10;19.90
37678;DHT22;23517;50.390;8.616;2022-08-19T15:50:31;29.20;19.70
37678;DHT22;23517;50.390;8.616;2022-08-19T15:53:04;29.30;19.50
37678;DHT22;23517;50.390;8.616;2022-08-19T15:55:35;29.30;19.00
37678;DHT22;23517;50.390;8.616;2022-08-19T15:58:10;29.20;19.30
37678;DHT22;23517;50.390;8.616;2022-08-19T16:00:58;29.30;19.30
37678;DHT22;23517;50.390;8.616;2022-08-19T16:03:50;29.40;18.80
37678;DHT22;23517;50.390;8.616;2022-08-19T16:06:55;29.40;19.10
37678;DHT22;23517;50.390;8.616;2022-08-19T16:09:25;29.50;19.20
37678;DHT22;23517;50.390;8.616;2022-08-19T16:11:56;29.50;19.30
37678;DHT22;23517;50.390;8.616;2022-08-19T16:14:28;29.40;19.10
37678;DHT22;23517;50.390;8.616;2022-08-19T16:16:56;29.30;19.20
37678;DHT22;23517;50.390;8.616;2022-08-19T16:19:24;29.10;19.70